ISR336 LICC-LLBG
Flight info
| Callsign | ISR336 |
|---|---|
| Flight time | 2h 27m |
| Altitude | 37000 |
| Route | ALUDU M871 SUBOK DCT INKOP DCT DEMAG UM978 SIT DCT VANZA DCT PIKOG L609 ZUKKO |
| Aircraft | A320/M-SDE2FGHIJ1LORVWY/SB1 |
Departure
| Time | 2026-05-05 08:40 |
|---|---|
| Airport | Catania-Fontanarossa Airport (LICC) |
Arrival
| Time | 2026-05-05 11:08 |
|---|---|
| Airport | Ben Gurion International Airport (LLBG) |
| Time | Latitude | Longitude | Altitude | Speed | Heading |
|---|---|---|---|---|---|
| 2026-05-05 08:17 | 37.46865 | 15.05986 | 32 ft | 0 kts | 354° |
| 2026-05-05 08:31 | 37.46863 | 15.05986 | 31 ft | 2 kts | 354° |
| 2026-05-05 08:31 | 37.46838 | 15.05989 | 53 ft | 4 kts | 356° |
| 2026-05-05 08:31 | 37.46816 | 15.05992 | 30 ft | 4 kts | 0° |
| 2026-05-05 08:32 | 37.46792 | 15.05984 | 31 ft | 4 kts | 55° |
| 2026-05-05 08:32 | 37.46786 | 15.05956 | 30 ft | 4 kts | 87° |
| 2026-05-05 08:32 | 37.46785 | 15.05935 | 30 ft | 0 kts | 84° |
| 2026-05-05 08:35 | 37.46785 | 15.05936 | 30 ft | 0 kts | 84° |
| 2026-05-05 08:36 | 37.46786 | 15.05948 | 31 ft | 2 kts | 84° |
| 2026-05-05 08:36 | 37.46790 | 15.05991 | 31 ft | 9 kts | 84° |
| 2026-05-05 08:36 | 37.46799 | 15.06103 | 32 ft | 17 kts | 84° |
| 2026-05-05 08:36 | 37.46814 | 15.06285 | 32 ft | 25 kts | 84° |
| 2026-05-05 08:37 | 37.46835 | 15.06523 | 32 ft | 29 kts | 84° |
| 2026-05-05 08:37 | 37.46855 | 15.06774 | 32 ft | 30 kts | 84° |
| 2026-05-05 08:37 | 37.46877 | 15.07038 | 32 ft | 31 kts | 84° |
| 2026-05-05 08:37 | 37.46900 | 15.07311 | 32 ft | 32 kts | 84° |
| 2026-05-05 08:38 | 37.46924 | 15.07592 | 31 ft | 32 kts | 84° |
| 2026-05-05 08:38 | 37.46947 | 15.07852 | 32 ft | 27 kts | 85° |
| 2026-05-05 08:38 | 37.46952 | 15.08041 | 32 ft | 12 kts | 111° |
| 2026-05-05 08:38 | 37.46888 | 15.08085 | 34 ft | 11 kts | 173° |
| 2026-05-05 08:39 | 37.46817 | 15.08072 | 36 ft | 10 kts | 210° |
| 2026-05-05 08:39 | 37.46790 | 15.07983 | 36 ft | 13 kts | 265° |
| 2026-05-05 08:39 | 37.46764 | 15.07663 | 35 ft | 71 kts | 264° |
| 2026-05-05 08:39 | 37.46691 | 15.06790 | 35 ft | 125 kts | 264° |
| 2026-05-05 08:40 | 37.46587 | 15.05529 | 135 ft | 157 kts | 263° |
| 2026-05-05 08:40 | 37.46495 | 15.04164 | 696 ft | 156 kts | 264° |
| 2026-05-05 08:40 | 37.46394 | 15.02827 | 1276 ft | 155 kts | 264° |
| 2026-05-05 08:40 | 37.46283 | 15.01486 | 1875 ft | 153 kts | 264° |
| 2026-05-05 08:41 | 37.46172 | 15.00154 | 2390 ft | 154 kts | 264° |
| 2026-05-05 08:41 | 37.46058 | 14.98806 | 2993 ft | 154 kts | 263° |
| 2026-05-05 08:41 | 37.45942 | 14.97431 | 3483 ft | 165 kts | 263° |
| 2026-05-05 08:41 | 37.45811 | 14.95896 | 3738 ft | 187 kts | 263° |
| 2026-05-05 08:42 | 37.45664 | 14.94188 | 4019 ft | 210 kts | 263° |
| 2026-05-05 08:42 | 37.45498 | 14.92249 | 4361 ft | 235 kts | 264° |
| 2026-05-05 08:42 | 37.45314 | 14.90155 | 5032 ft | 244 kts | 263° |
| 2026-05-05 08:42 | 37.45123 | 14.88008 | 5831 ft | 249 kts | 264° |
| 2026-05-05 08:43 | 37.44928 | 14.85825 | 6697 ft | 252 kts | 264° |
| 2026-05-05 08:43 | 37.44726 | 14.83610 | 7476 ft | 259 kts | 263° |
| 2026-05-05 08:43 | 37.44092 | 14.81436 | 7947 ft | 278 kts | 236° |
| 2026-05-05 08:43 | 37.42627 | 14.79799 | 8646 ft | 288 kts | 207° |
| 2026-05-05 08:44 | 37.40662 | 14.79252 | 9375 ft | 296 kts | 177° |
| 2026-05-05 08:44 | 37.38695 | 14.80035 | 10088 ft | 303 kts | 146° |
| 2026-05-05 08:44 | 37.37285 | 14.82015 | 10730 ft | 308 kts | 116° |
| 2026-05-05 08:44 | 37.36416 | 14.84586 | 10959 ft | 331 kts | 110° |
| 2026-05-05 08:45 | 37.35619 | 14.87362 | 11228 ft | 349 kts | 108° |
| 2026-05-05 08:45 | 37.34831 | 14.90289 | 11809 ft | 356 kts | 108° |
| 2026-05-05 08:45 | 37.34037 | 14.93270 | 12463 ft | 361 kts | 108° |
| 2026-05-05 08:45 | 37.33215 | 14.96286 | 13145 ft | 366 kts | 109° |
| 2026-05-05 08:46 | 37.32361 | 14.99337 | 13782 ft | 370 kts | 109° |
| 2026-05-05 08:46 | 37.31494 | 15.02366 | 14366 ft | 374 kts | 110° |
| 2026-05-05 08:46 | 37.30595 | 15.05467 | 14945 ft | 378 kts | 110° |
| 2026-05-05 08:46 | 37.29688 | 15.08580 | 15526 ft | 381 kts | 110° |
| 2026-05-05 08:47 | 37.28770 | 15.11728 | 16076 ft | 384 kts | 110° |
| 2026-05-05 08:47 | 37.27858 | 15.14864 | 16631 ft | 388 kts | 110° |
| 2026-05-05 08:47 | 37.26929 | 15.18062 | 17188 ft | 391 kts | 110° |
| 2026-05-05 08:47 | 37.25995 | 15.21289 | 17740 ft | 394 kts | 110° |
| 2026-05-05 08:48 | 37.25054 | 15.24546 | 18306 ft | 398 kts | 110° |
| 2026-05-05 08:48 | 37.24104 | 15.27827 | 18802 ft | 401 kts | 110° |
| 2026-05-05 08:48 | 37.23158 | 15.31084 | 19284 ft | 404 kts | 110° |
| 2026-05-05 08:48 | 37.22187 | 15.34425 | 19774 ft | 407 kts | 110° |
| 2026-05-05 08:49 | 37.21210 | 15.37774 | 20266 ft | 409 kts | 110° |
| 2026-05-05 08:49 | 37.20228 | 15.41139 | 20756 ft | 412 kts | 110° |
| 2026-05-05 08:49 | 37.19239 | 15.44537 | 21227 ft | 415 kts | 110° |
| 2026-05-05 08:49 | 37.18244 | 15.47944 | 21677 ft | 417 kts | 110° |
| 2026-05-05 08:50 | 37.17241 | 15.51375 | 22120 ft | 420 kts | 110° |
| 2026-05-05 08:50 | 37.16238 | 15.54791 | 22561 ft | 423 kts | 110° |
| 2026-05-05 08:50 | 37.15100 | 15.58210 | 22983 ft | 426 kts | 117° |
| 2026-05-05 08:50 | 37.13583 | 15.61416 | 23414 ft | 428 kts | 122° |
| 2026-05-05 08:51 | 37.11986 | 15.64590 | 23812 ft | 431 kts | 122° |
| 2026-05-05 08:51 | 37.10378 | 15.67784 | 24174 ft | 434 kts | 122° |
| 2026-05-05 08:51 | 37.08762 | 15.70996 | 24527 ft | 436 kts | 122° |
| 2026-05-05 08:51 | 37.07153 | 15.74188 | 24874 ft | 439 kts | 122° |
| 2026-05-05 08:52 | 37.05513 | 15.77441 | 25234 ft | 441 kts | 122° |
| 2026-05-05 08:52 | 37.03866 | 15.80701 | 25594 ft | 444 kts | 122° |
| 2026-05-05 08:52 | 37.02206 | 15.83984 | 25944 ft | 446 kts | 122° |
| 2026-05-05 08:52 | 37.00558 | 15.87240 | 26284 ft | 448 kts | 122° |
| 2026-05-05 08:53 | 36.98884 | 15.90544 | 26624 ft | 451 kts | 122° |
| 2026-05-05 08:53 | 36.97199 | 15.93875 | 26959 ft | 453 kts | 122° |
| 2026-05-05 08:53 | 36.95504 | 15.97233 | 27288 ft | 456 kts | 122° |
| 2026-05-05 08:53 | 36.93801 | 16.00599 | 27609 ft | 458 kts | 122° |
| 2026-05-05 08:54 | 36.92107 | 16.03935 | 27935 ft | 461 kts | 122° |
| 2026-05-05 08:54 | 36.90375 | 16.07337 | 28257 ft | 463 kts | 122° |
| 2026-05-05 08:54 | 36.88634 | 16.10754 | 28587 ft | 466 kts | 122° |
| 2026-05-05 08:54 | 36.86883 | 16.14184 | 28910 ft | 469 kts | 122° |
| 2026-05-05 08:55 | 36.85125 | 16.17626 | 29237 ft | 471 kts | 122° |
| 2026-05-05 08:55 | 36.83379 | 16.21044 | 29554 ft | 474 kts | 122° |
| 2026-05-05 08:55 | 36.81600 | 16.24526 | 29870 ft | 476 kts | 122° |
| 2026-05-05 08:55 | 36.79808 | 16.28034 | 30247 ft | 477 kts | 122° |
| 2026-05-05 08:56 | 36.78017 | 16.31530 | 30640 ft | 476 kts | 122° |
| 2026-05-05 08:56 | 36.76228 | 16.35015 | 31027 ft | 476 kts | 122° |
| 2026-05-05 08:56 | 36.74442 | 16.38488 | 31438 ft | 474 kts | 122° |
| 2026-05-05 08:56 | 36.72682 | 16.41913 | 31843 ft | 473 kts | 122° |
| 2026-05-05 08:57 | 36.70900 | 16.45374 | 32240 ft | 472 kts | 122° |
| 2026-05-05 08:57 | 36.69115 | 16.48836 | 32669 ft | 471 kts | 122° |
| 2026-05-05 08:57 | 36.67344 | 16.52267 | 33094 ft | 470 kts | 122° |
| 2026-05-05 08:57 | 36.66170 | 16.54538 | 33356 ft | 470 kts | 122° |
| 2026-05-05 08:58 | 36.63825 | 16.59067 | 33895 ft | 468 kts | 122° |
| 2026-05-05 08:58 | 36.62630 | 16.61377 | 34166 ft | 468 kts | 122° |
| 2026-05-05 08:58 | 36.60890 | 16.64737 | 34491 ft | 467 kts | 122° |
| 2026-05-05 08:58 | 36.59129 | 16.68140 | 34797 ft | 467 kts | 122° |
| 2026-05-05 08:59 | 36.57371 | 16.71534 | 35092 ft | 467 kts | 122° |
| 2026-05-05 08:59 | 36.55608 | 16.74935 | 35382 ft | 466 kts | 122° |
| 2026-05-05 08:59 | 36.53843 | 16.78334 | 35665 ft | 466 kts | 123° |
| 2026-05-05 08:59 | 36.52077 | 16.81729 | 35949 ft | 466 kts | 123° |
| 2026-05-05 09:00 | 36.50478 | 16.85176 | 36208 ft | 465 kts | 115° |
| 2026-05-05 09:00 | 36.49280 | 16.88916 | 36469 ft | 464 kts | 105° |
| 2026-05-05 09:00 | 36.48416 | 16.92792 | 36700 ft | 464 kts | 104° |
| 2026-05-05 09:00 | 36.47555 | 16.96675 | 36942 ft | 464 kts | 104° |
| 2026-05-05 09:01 | 36.46691 | 17.00503 | 37128 ft | 465 kts | 105° |
| 2026-05-05 09:01 | 36.44915 | 17.08292 | 37168 ft | 472 kts | 105° |
| 2026-05-05 09:02 | 36.43118 | 17.16165 | 37170 ft | 474 kts | 104° |
| 2026-05-05 09:02 | 36.41320 | 17.24066 | 37182 ft | 475 kts | 104° |
| 2026-05-05 09:03 | 36.39531 | 17.31944 | 37179 ft | 476 kts | 104° |
| 2026-05-05 09:03 | 36.37725 | 17.39853 | 37177 ft | 476 kts | 104° |
| 2026-05-05 09:04 | 36.35917 | 17.47723 | 37173 ft | 476 kts | 104° |
| 2026-05-05 09:04 | 36.34095 | 17.55627 | 37181 ft | 476 kts | 104° |
| 2026-05-05 09:05 | 36.32272 | 17.63501 | 37178 ft | 477 kts | 104° |
| 2026-05-05 09:05 | 36.30421 | 17.71445 | 37183 ft | 477 kts | 105° |
| 2026-05-05 09:06 | 36.28570 | 17.79365 | 37186 ft | 478 kts | 104° |
| 2026-05-05 09:06 | 36.26730 | 17.87251 | 37192 ft | 478 kts | 104° |
| 2026-05-05 09:07 | 36.24881 | 17.95158 | 37200 ft | 479 kts | 105° |
| 2026-05-05 09:07 | 36.23006 | 18.03111 | 37201 ft | 479 kts | 104° |
| 2026-05-05 09:08 | 36.21146 | 18.11010 | 37192 ft | 479 kts | 104° |
| 2026-05-05 09:08 | 36.19273 | 18.18902 | 37197 ft | 479 kts | 105° |
| 2026-05-05 09:09 | 36.17393 | 18.26806 | 37201 ft | 479 kts | 105° |
| 2026-05-05 09:09 | 36.15505 | 18.34742 | 37205 ft | 479 kts | 105° |
| 2026-05-05 09:10 | 36.13624 | 18.42629 | 37208 ft | 480 kts | 105° |
| 2026-05-05 09:10 | 36.11726 | 18.50522 | 37205 ft | 480 kts | 105° |
| 2026-05-05 09:11 | 36.09810 | 18.58460 | 37211 ft | 480 kts | 105° |
| 2026-05-05 09:11 | 36.07901 | 18.66367 | 37211 ft | 480 kts | 105° |
| 2026-05-05 09:12 | 36.06001 | 18.74240 | 37212 ft | 480 kts | 105° |
| 2026-05-05 09:12 | 36.04074 | 18.82161 | 37208 ft | 480 kts | 105° |
| 2026-05-05 09:13 | 36.02159 | 18.90040 | 37214 ft | 480 kts | 105° |
| 2026-05-05 09:13 | 36.00229 | 18.97931 | 37212 ft | 480 kts | 105° |
| 2026-05-05 09:14 | 35.98291 | 19.05814 | 37213 ft | 480 kts | 105° |
| 2026-05-05 09:14 | 35.96349 | 19.13694 | 37214 ft | 480 kts | 105° |
| 2026-05-05 09:15 | 35.94396 | 19.21608 | 37211 ft | 480 kts | 105° |
| 2026-05-05 09:15 | 35.92452 | 19.29449 | 37214 ft | 480 kts | 105° |
| 2026-05-05 09:16 | 35.90498 | 19.37307 | 37210 ft | 480 kts | 105° |
| 2026-05-05 09:16 | 35.88531 | 19.45202 | 37214 ft | 480 kts | 105° |
| 2026-05-05 09:17 | 35.86576 | 19.53040 | 37213 ft | 480 kts | 105° |
| 2026-05-05 09:17 | 35.84611 | 19.60894 | 37211 ft | 480 kts | 105° |
| 2026-05-05 09:18 | 35.82622 | 19.68783 | 37216 ft | 481 kts | 105° |
| 2026-05-05 09:18 | 35.80640 | 19.76664 | 37214 ft | 481 kts | 105° |
| 2026-05-05 09:19 | 35.78661 | 19.84504 | 37214 ft | 481 kts | 105° |
| 2026-05-05 09:19 | 35.76655 | 19.92384 | 37215 ft | 481 kts | 105° |
| 2026-05-05 09:20 | 35.74654 | 20.00232 | 37214 ft | 481 kts | 105° |
| 2026-05-05 09:20 | 35.72654 | 20.08065 | 37211 ft | 481 kts | 106° |
| 2026-05-05 09:21 | 35.70629 | 20.15949 | 37213 ft | 481 kts | 106° |
| 2026-05-05 09:21 | 35.68618 | 20.23778 | 37212 ft | 481 kts | 106° |
| 2026-05-05 09:22 | 35.66590 | 20.31643 | 37216 ft | 482 kts | 106° |
| 2026-05-05 09:22 | 35.64551 | 20.39519 | 37210 ft | 482 kts | 106° |
| 2026-05-05 09:23 | 35.62528 | 20.47339 | 37211 ft | 482 kts | 106° |
| 2026-05-05 09:23 | 35.60495 | 20.55168 | 37211 ft | 482 kts | 106° |
| 2026-05-05 09:24 | 35.58438 | 20.63047 | 37204 ft | 482 kts | 106° |
| 2026-05-05 09:24 | 35.56444 | 20.70873 | 37202 ft | 481 kts | 101° |
| 2026-05-05 09:25 | 35.55477 | 20.78988 | 37209 ft | 478 kts | 94° |
| 2026-05-05 09:25 | 35.54675 | 20.87076 | 37203 ft | 479 kts | 94° |
| 2026-05-05 09:26 | 35.53841 | 20.95207 | 37204 ft | 479 kts | 94° |
| 2026-05-05 09:26 | 35.53024 | 21.03313 | 37205 ft | 479 kts | 94° |
| 2026-05-05 09:27 | 35.52202 | 21.11443 | 37197 ft | 479 kts | 94° |
| 2026-05-05 09:27 | 35.51370 | 21.19525 | 37193 ft | 479 kts | 94° |
| 2026-05-05 09:28 | 35.50524 | 21.27666 | 37193 ft | 480 kts | 95° |
| 2026-05-05 09:28 | 35.49664 | 21.35811 | 37194 ft | 480 kts | 95° |
| 2026-05-05 09:29 | 35.48802 | 21.43925 | 37194 ft | 481 kts | 95° |
| 2026-05-05 09:29 | 35.47925 | 21.52096 | 37196 ft | 482 kts | 95° |
| 2026-05-05 09:30 | 35.47047 | 21.60219 | 37195 ft | 482 kts | 95° |
| 2026-05-05 09:30 | 35.46162 | 21.68352 | 37192 ft | 483 kts | 95° |
| 2026-05-05 09:31 | 35.45261 | 21.76549 | 37192 ft | 483 kts | 95° |
| 2026-05-05 09:31 | 35.44366 | 21.84723 | 37194 ft | 484 kts | 95° |
| 2026-05-05 09:32 | 35.43472 | 21.92872 | 37196 ft | 484 kts | 95° |
| 2026-05-05 09:32 | 35.42566 | 22.01058 | 37194 ft | 485 kts | 95° |
| 2026-05-05 09:33 | 35.41648 | 22.09271 | 37197 ft | 485 kts | 95° |
| 2026-05-05 09:33 | 35.40728 | 22.17459 | 37194 ft | 486 kts | 95° |
| 2026-05-05 09:34 | 35.39795 | 22.25681 | 37194 ft | 486 kts | 95° |
| 2026-05-05 09:34 | 35.38857 | 22.33865 | 37196 ft | 486 kts | 95° |
| 2026-05-05 09:35 | 35.37919 | 22.42089 | 37190 ft | 486 kts | 95° |
| 2026-05-05 09:35 | 35.36507 | 22.54386 | 37191 ft | 487 kts | 95° |
| 2026-05-05 09:36 | 35.35544 | 22.62625 | 37190 ft | 487 kts | 95° |
| 2026-05-05 09:36 | 35.34579 | 22.70809 | 37190 ft | 487 kts | 95° |
| 2026-05-05 09:37 | 35.33619 | 22.78999 | 37190 ft | 487 kts | 95° |
| 2026-05-05 09:37 | 35.32651 | 22.87245 | 37187 ft | 487 kts | 95° |
| 2026-05-05 09:38 | 35.31675 | 22.95438 | 37186 ft | 487 kts | 95° |
| 2026-05-05 09:38 | 35.30853 | 23.02270 | 37185 ft | 487 kts | 95° |
| 2026-05-05 09:39 | 35.29857 | 23.10502 | 37183 ft | 487 kts | 95° |
| 2026-05-05 09:39 | 35.28865 | 23.18677 | 37183 ft | 487 kts | 95° |
| 2026-05-05 09:40 | 35.27868 | 23.26905 | 37182 ft | 487 kts | 95° |
| 2026-05-05 09:40 | 35.26865 | 23.35084 | 37178 ft | 487 kts | 95° |
| 2026-05-05 09:41 | 35.25857 | 23.43303 | 37178 ft | 487 kts | 95° |
| 2026-05-05 09:41 | 35.24838 | 23.51526 | 37175 ft | 487 kts | 95° |
| 2026-05-05 09:42 | 35.23824 | 23.59682 | 37174 ft | 487 kts | 95° |
| 2026-05-05 09:42 | 35.22809 | 23.67888 | 37169 ft | 486 kts | 92° |
| 2026-05-05 09:43 | 35.22334 | 23.76082 | 37168 ft | 484 kts | 89° |
| 2026-05-05 09:43 | 35.21901 | 23.84329 | 37167 ft | 484 kts | 89° |
| 2026-05-05 09:44 | 35.21459 | 23.92558 | 37168 ft | 485 kts | 89° |
| 2026-05-05 09:44 | 35.21009 | 24.00745 | 37162 ft | 485 kts | 89° |
| 2026-05-05 09:45 | 35.20549 | 24.08989 | 37167 ft | 485 kts | 90° |
| 2026-05-05 09:45 | 35.20080 | 24.17234 | 37165 ft | 485 kts | 90° |
| 2026-05-05 09:46 | 35.19611 | 24.25434 | 37164 ft | 485 kts | 90° |
| 2026-05-05 09:46 | 35.19143 | 24.33688 | 37165 ft | 485 kts | 90° |
| 2026-05-05 09:47 | 35.18664 | 24.41885 | 37167 ft | 486 kts | 90° |
| 2026-05-05 09:47 | 35.18174 | 24.50109 | 37167 ft | 486 kts | 90° |
| 2026-05-05 09:48 | 35.17681 | 24.58372 | 37164 ft | 486 kts | 90° |
| 2026-05-05 09:48 | 35.17183 | 24.66649 | 37166 ft | 486 kts | 90° |
| 2026-05-05 09:49 | 35.16667 | 24.74868 | 37164 ft | 487 kts | 90° |
| 2026-05-05 09:49 | 35.16134 | 24.83144 | 37158 ft | 488 kts | 90° |
| 2026-05-05 09:50 | 35.15604 | 24.91381 | 37154 ft | 488 kts | 90° |
| 2026-05-05 09:50 | 35.15074 | 24.99627 | 37161 ft | 488 kts | 90° |
| 2026-05-05 09:51 | 35.14547 | 25.07915 | 37148 ft | 488 kts | 90° |
| 2026-05-05 09:51 | 35.14008 | 25.16208 | 37155 ft | 488 kts | 90° |
| 2026-05-05 09:52 | 35.13464 | 25.24438 | 37152 ft | 488 kts | 90° |
| 2026-05-05 09:52 | 35.12914 | 25.32733 | 37161 ft | 488 kts | 90° |
| 2026-05-05 09:53 | 35.12362 | 25.40968 | 37157 ft | 488 kts | 90° |
| 2026-05-05 09:53 | 35.11805 | 25.49264 | 37153 ft | 488 kts | 90° |
| 2026-05-05 09:54 | 35.11236 | 25.57523 | 37153 ft | 489 kts | 91° |
| 2026-05-05 09:54 | 35.10659 | 25.65768 | 37147 ft | 489 kts | 90° |
| 2026-05-05 09:55 | 35.10075 | 25.74061 | 37152 ft | 489 kts | 91° |
| 2026-05-05 09:55 | 35.09493 | 25.82310 | 37150 ft | 489 kts | 91° |
| 2026-05-05 09:56 | 35.08905 | 25.90598 | 37145 ft | 489 kts | 91° |
| 2026-05-05 09:56 | 35.08316 | 25.98822 | 37149 ft | 488 kts | 91° |
| 2026-05-05 09:57 | 35.07723 | 26.07081 | 37149 ft | 488 kts | 91° |
| 2026-05-05 09:57 | 35.07119 | 26.15339 | 37142 ft | 488 kts | 91° |
| 2026-05-05 09:58 | 35.06512 | 26.23625 | 37148 ft | 488 kts | 91° |
| 2026-05-05 09:58 | 35.05968 | 26.31853 | 37139 ft | 488 kts | 90° |
| 2026-05-05 09:59 | 35.05439 | 26.40130 | 37139 ft | 488 kts | 91° |
| 2026-05-05 09:59 | 35.04890 | 26.48352 | 37136 ft | 488 kts | 91° |
| 2026-05-05 10:00 | 35.04324 | 26.56586 | 37134 ft | 487 kts | 91° |
| 2026-05-05 10:00 | 35.03745 | 26.64847 | 37127 ft | 487 kts | 91° |
| 2026-05-05 10:01 | 35.03162 | 26.73100 | 37125 ft | 487 kts | 91° |
| 2026-05-05 10:01 | 35.02583 | 26.81295 | 37123 ft | 487 kts | 91° |
| 2026-05-05 10:02 | 35.01999 | 26.89562 | 37124 ft | 487 kts | 91° |
| 2026-05-05 10:02 | 35.01415 | 26.97779 | 37121 ft | 487 kts | 91° |
| 2026-05-05 10:03 | 35.00825 | 27.05984 | 37128 ft | 487 kts | 91° |
| 2026-05-05 10:03 | 35.00223 | 27.14237 | 37119 ft | 487 kts | 91° |
| 2026-05-05 10:04 | 34.99613 | 27.22425 | 37115 ft | 486 kts | 92° |
| 2026-05-05 10:04 | 34.98994 | 27.30671 | 37114 ft | 486 kts | 92° |
| 2026-05-05 10:05 | 34.98383 | 27.38853 | 37114 ft | 486 kts | 92° |
| 2026-05-05 10:05 | 34.97757 | 27.47076 | 37113 ft | 486 kts | 92° |
| 2026-05-05 10:06 | 34.97125 | 27.55242 | 37111 ft | 486 kts | 92° |
| 2026-05-05 10:06 | 34.96483 | 27.63445 | 37108 ft | 486 kts | 92° |
| 2026-05-05 10:07 | 34.95846 | 27.71680 | 37103 ft | 485 kts | 92° |
| 2026-05-05 10:07 | 34.95212 | 27.79856 | 37104 ft | 486 kts | 92° |
| 2026-05-05 10:08 | 34.94562 | 27.88036 | 37100 ft | 486 kts | 92° |
| 2026-05-05 10:08 | 34.93904 | 27.96239 | 37096 ft | 485 kts | 92° |
| 2026-05-05 10:09 | 34.93241 | 28.04402 | 37092 ft | 485 kts | 92° |
| 2026-05-05 10:09 | 34.92573 | 28.12595 | 37089 ft | 485 kts | 92° |
| 2026-05-05 10:10 | 34.91899 | 28.20799 | 37091 ft | 486 kts | 93° |
| 2026-05-05 10:10 | 34.91224 | 28.28961 | 37085 ft | 485 kts | 93° |
| 2026-05-05 10:11 | 34.90543 | 28.37122 | 37083 ft | 485 kts | 93° |
| 2026-05-05 10:11 | 34.89854 | 28.45318 | 37080 ft | 485 kts | 93° |
| 2026-05-05 10:12 | 34.89160 | 28.53508 | 37079 ft | 485 kts | 93° |
| 2026-05-05 10:12 | 34.88462 | 28.61660 | 37076 ft | 485 kts | 93° |
| 2026-05-05 10:13 | 34.87751 | 28.69869 | 37071 ft | 485 kts | 94° |
| 2026-05-05 10:13 | 34.87042 | 28.78011 | 37072 ft | 485 kts | 94° |
| 2026-05-05 10:14 | 34.86326 | 28.86202 | 37071 ft | 486 kts | 94° |
| 2026-05-05 10:14 | 34.85613 | 28.94348 | 37071 ft | 486 kts | 94° |
| 2026-05-05 10:15 | 34.84890 | 29.02507 | 37065 ft | 486 kts | 94° |
| 2026-05-05 10:15 | 34.84147 | 29.10700 | 37064 ft | 485 kts | 94° |
| 2026-05-05 10:16 | 34.83411 | 29.18856 | 37063 ft | 486 kts | 94° |
| 2026-05-05 10:16 | 34.82666 | 29.27066 | 37065 ft | 486 kts | 94° |
| 2026-05-05 10:17 | 34.81916 | 29.35233 | 37064 ft | 486 kts | 94° |
| 2026-05-05 10:17 | 34.81164 | 29.43379 | 37065 ft | 487 kts | 94° |
| 2026-05-05 10:18 | 34.80526 | 29.50207 | 37064 ft | 487 kts | 95° |
| 2026-05-05 10:18 | 34.79638 | 29.59751 | 37063 ft | 487 kts | 95° |
| 2026-05-05 10:19 | 34.78997 | 29.66587 | 37059 ft | 487 kts | 95° |
| 2026-05-05 10:19 | 34.78221 | 29.74737 | 37056 ft | 487 kts | 95° |
| 2026-05-05 10:20 | 34.77434 | 29.82958 | 37056 ft | 487 kts | 95° |
| 2026-05-05 10:20 | 34.76640 | 29.91127 | 37053 ft | 487 kts | 95° |
| 2026-05-05 10:21 | 34.75410 | 29.99200 | 37051 ft | 488 kts | 108° |
| 2026-05-05 10:21 | 34.72432 | 30.06604 | 37050 ft | 488 kts | 123° |
| 2026-05-05 10:22 | 34.68853 | 30.13622 | 37044 ft | 488 kts | 122° |
| 2026-05-05 10:22 | 34.65286 | 30.20629 | 37048 ft | 489 kts | 122° |
| 2026-05-05 10:23 | 34.61704 | 30.27662 | 37039 ft | 489 kts | 123° |
| 2026-05-05 10:23 | 34.58143 | 30.34643 | 37040 ft | 489 kts | 123° |
| 2026-05-05 10:24 | 34.54542 | 30.41671 | 37036 ft | 489 kts | 123° |
| 2026-05-05 10:24 | 34.50938 | 30.48692 | 37034 ft | 489 kts | 123° |
| 2026-05-05 10:25 | 34.47351 | 30.55678 | 37036 ft | 490 kts | 123° |
| 2026-05-05 10:25 | 34.43727 | 30.62692 | 37032 ft | 490 kts | 123° |
| 2026-05-05 10:26 | 34.40138 | 30.69648 | 37035 ft | 490 kts | 123° |
| 2026-05-05 10:26 | 34.36517 | 30.76665 | 37032 ft | 490 kts | 123° |
| 2026-05-05 10:27 | 34.32876 | 30.83676 | 37033 ft | 491 kts | 123° |
| 2026-05-05 10:27 | 34.29238 | 30.90668 | 37037 ft | 491 kts | 123° |
| 2026-05-05 10:28 | 34.25619 | 30.97624 | 37038 ft | 491 kts | 123° |
| 2026-05-05 10:28 | 34.21965 | 31.04641 | 37038 ft | 491 kts | 124° |
| 2026-05-05 10:29 | 34.18331 | 31.11617 | 37037 ft | 492 kts | 124° |
| 2026-05-05 10:29 | 34.14687 | 31.18579 | 37040 ft | 492 kts | 124° |
| 2026-05-05 10:30 | 34.11013 | 31.25587 | 37039 ft | 493 kts | 124° |
| 2026-05-05 10:30 | 34.07355 | 31.32549 | 37041 ft | 493 kts | 124° |
| 2026-05-05 10:31 | 34.03681 | 31.39530 | 37042 ft | 493 kts | 124° |
| 2026-05-05 10:31 | 33.99991 | 31.46514 | 37041 ft | 493 kts | 124° |
| 2026-05-05 10:32 | 33.96301 | 31.53498 | 37039 ft | 493 kts | 124° |
| 2026-05-05 10:32 | 33.92620 | 31.60460 | 37037 ft | 493 kts | 124° |
| 2026-05-05 10:33 | 33.88936 | 31.67392 | 37034 ft | 493 kts | 125° |
| 2026-05-05 10:33 | 33.85235 | 31.74350 | 37034 ft | 493 kts | 125° |
| 2026-05-05 10:34 | 33.81525 | 31.81322 | 37033 ft | 494 kts | 125° |
| 2026-05-05 10:34 | 33.77827 | 31.88257 | 37036 ft | 494 kts | 125° |
| 2026-05-05 10:35 | 33.74107 | 31.95218 | 37034 ft | 494 kts | 125° |
| 2026-05-05 10:35 | 33.70401 | 32.02144 | 37035 ft | 494 kts | 125° |
| 2026-05-05 10:36 | 33.66666 | 32.09102 | 37033 ft | 494 kts | 126° |
| 2026-05-05 10:36 | 33.62938 | 32.16011 | 37031 ft | 494 kts | 126° |
| 2026-05-05 10:37 | 33.59193 | 32.22955 | 37029 ft | 494 kts | 126° |
| 2026-05-05 10:37 | 33.55475 | 32.29859 | 37030 ft | 495 kts | 126° |
| 2026-05-05 10:38 | 33.53604 | 32.33329 | 36811 ft | 495 kts | 126° |
| 2026-05-05 10:38 | 33.51736 | 32.36791 | 36552 ft | 494 kts | 126° |
| 2026-05-05 10:38 | 33.49864 | 32.40248 | 36297 ft | 494 kts | 126° |
| 2026-05-05 10:38 | 33.47991 | 32.43700 | 36046 ft | 494 kts | 126° |
| 2026-05-05 10:39 | 33.46112 | 32.47157 | 35793 ft | 493 kts | 126° |
| 2026-05-05 10:39 | 33.44239 | 32.50599 | 35561 ft | 491 kts | 126° |
| 2026-05-05 10:39 | 33.42378 | 32.54025 | 35310 ft | 489 kts | 126° |
| 2026-05-05 10:39 | 33.40545 | 32.57396 | 35066 ft | 487 kts | 126° |
| 2026-05-05 10:40 | 33.38691 | 32.60809 | 34828 ft | 485 kts | 126° |
| 2026-05-05 10:40 | 33.36871 | 32.64158 | 34594 ft | 483 kts | 126° |
| 2026-05-05 10:40 | 33.35038 | 32.67519 | 34339 ft | 480 kts | 126° |
| 2026-05-05 10:40 | 33.33208 | 32.70868 | 33805 ft | 479 kts | 126° |
| 2026-05-05 10:41 | 33.31371 | 32.74219 | 33248 ft | 478 kts | 126° |
| 2026-05-05 10:41 | 33.29571 | 32.77498 | 32731 ft | 475 kts | 126° |
| 2026-05-05 10:41 | 33.27753 | 32.80804 | 32198 ft | 473 kts | 126° |
| 2026-05-05 10:41 | 33.25947 | 32.84089 | 31677 ft | 471 kts | 126° |
| 2026-05-05 10:42 | 33.22581 | 32.90234 | 30714 ft | 467 kts | 125° |
| 2026-05-05 10:42 | 33.20803 | 32.93480 | 30206 ft | 465 kts | 125° |
| 2026-05-05 10:42 | 33.19032 | 32.96708 | 29654 ft | 462 kts | 125° |
| 2026-05-05 10:43 | 33.17275 | 32.99908 | 29182 ft | 458 kts | 125° |
| 2026-05-05 10:43 | 33.15548 | 33.03040 | 28713 ft | 453 kts | 125° |
| 2026-05-05 10:43 | 33.13818 | 33.06165 | 28255 ft | 449 kts | 125° |
| 2026-05-05 10:43 | 33.12101 | 33.09271 | 27798 ft | 446 kts | 125° |
| 2026-05-05 10:44 | 33.10397 | 33.12359 | 27341 ft | 443 kts | 125° |
| 2026-05-05 10:44 | 33.08701 | 33.15435 | 26888 ft | 440 kts | 125° |
| 2026-05-05 10:44 | 33.07017 | 33.18482 | 26418 ft | 438 kts | 125° |
| 2026-05-05 10:44 | 33.05359 | 33.21478 | 25979 ft | 436 kts | 125° |
| 2026-05-05 10:45 | 33.03682 | 33.24502 | 25504 ft | 435 kts | 125° |
| 2026-05-05 10:45 | 33.02010 | 33.27514 | 25022 ft | 435 kts | 125° |
| 2026-05-05 10:45 | 33.00335 | 33.30529 | 24531 ft | 435 kts | 125° |
| 2026-05-05 10:45 | 32.98679 | 33.33507 | 24045 ft | 435 kts | 124° |
| 2026-05-05 10:46 | 32.97002 | 33.36522 | 23587 ft | 434 kts | 124° |
| 2026-05-05 10:46 | 32.95340 | 33.39507 | 23025 ft | 433 kts | 124° |
| 2026-05-05 10:46 | 32.93690 | 33.42473 | 22627 ft | 427 kts | 125° |
| 2026-05-05 10:46 | 32.92051 | 33.45427 | 22126 ft | 425 kts | 124° |
| 2026-05-05 10:47 | 32.90479 | 33.48334 | 21833 ft | 418 kts | 123° |
| 2026-05-05 10:47 | 32.88951 | 33.51244 | 21576 ft | 409 kts | 123° |
| 2026-05-05 10:47 | 32.87468 | 33.54115 | 21319 ft | 402 kts | 123° |
| 2026-05-05 10:47 | 32.86020 | 33.56931 | 21063 ft | 396 kts | 123° |
| 2026-05-05 10:48 | 32.84584 | 33.59716 | 20804 ft | 394 kts | 123° |
| 2026-05-05 10:48 | 32.83146 | 33.62485 | 20563 ft | 392 kts | 123° |
| 2026-05-05 10:48 | 32.81722 | 33.65210 | 20316 ft | 391 kts | 123° |
| 2026-05-05 10:48 | 32.80285 | 33.67946 | 20081 ft | 389 kts | 123° |
| 2026-05-05 10:49 | 32.78846 | 33.70682 | 19832 ft | 388 kts | 124° |
| 2026-05-05 10:49 | 32.77414 | 33.73399 | 19596 ft | 387 kts | 124° |
| 2026-05-05 10:49 | 32.75981 | 33.76113 | 19358 ft | 386 kts | 124° |
| 2026-05-05 10:49 | 32.74572 | 33.78787 | 19122 ft | 385 kts | 124° |
| 2026-05-05 10:50 | 32.73150 | 33.81492 | 18890 ft | 384 kts | 124° |
| 2026-05-05 10:50 | 32.71731 | 33.84186 | 18652 ft | 382 kts | 124° |
| 2026-05-05 10:50 | 32.70318 | 33.86867 | 18416 ft | 381 kts | 124° |
| 2026-05-05 10:50 | 32.68927 | 33.89506 | 18177 ft | 380 kts | 124° |
| 2026-05-05 10:51 | 32.67524 | 33.92168 | 17914 ft | 378 kts | 124° |
| 2026-05-05 10:51 | 32.66128 | 33.94808 | 17648 ft | 377 kts | 124° |
| 2026-05-05 10:51 | 32.64737 | 33.97435 | 17385 ft | 375 kts | 124° |
| 2026-05-05 10:51 | 32.63349 | 34.00055 | 17131 ft | 372 kts | 124° |
| 2026-05-05 10:52 | 32.61993 | 34.02615 | 16772 ft | 370 kts | 124° |
| 2026-05-05 10:52 | 32.60616 | 34.05214 | 16313 ft | 370 kts | 124° |
| 2026-05-05 10:52 | 32.59244 | 34.07802 | 15872 ft | 371 kts | 124° |
| 2026-05-05 10:52 | 32.57866 | 34.10397 | 15426 ft | 371 kts | 124° |
| 2026-05-05 10:53 | 32.56506 | 34.12960 | 14985 ft | 371 kts | 124° |
| 2026-05-05 10:53 | 32.55129 | 34.15552 | 14538 ft | 371 kts | 124° |
| 2026-05-05 10:53 | 32.53745 | 34.18155 | 14088 ft | 371 kts | 124° |
| 2026-05-05 10:53 | 32.52365 | 34.20745 | 13608 ft | 371 kts | 124° |
| 2026-05-05 10:54 | 32.51000 | 34.23307 | 13116 ft | 370 kts | 124° |
| 2026-05-05 10:54 | 32.49623 | 34.25892 | 12619 ft | 369 kts | 124° |
| 2026-05-05 10:54 | 32.48248 | 34.28471 | 12131 ft | 368 kts | 125° |
| 2026-05-05 10:54 | 32.46894 | 34.31001 | 11662 ft | 367 kts | 125° |
| 2026-05-05 10:55 | 32.45530 | 34.33551 | 11191 ft | 365 kts | 125° |
| 2026-05-05 10:55 | 32.44170 | 34.36093 | 10726 ft | 363 kts | 125° |
| 2026-05-05 10:55 | 32.42856 | 34.38552 | 10280 ft | 361 kts | 125° |
| 2026-05-05 10:55 | 32.41531 | 34.41031 | 9865 ft | 358 kts | 125° |
| 2026-05-05 10:56 | 32.40206 | 34.43508 | 9462 ft | 353 kts | 125° |
| 2026-05-05 10:56 | 32.38899 | 34.45948 | 9075 ft | 348 kts | 125° |
| 2026-05-05 10:56 | 32.37608 | 34.48355 | 8658 ft | 344 kts | 125° |
| 2026-05-05 10:56 | 32.36761 | 34.49935 | 8425 ft | 341 kts | 125° |
| 2026-05-05 10:57 | 32.35186 | 34.53116 | 7910 ft | 337 kts | 116° |
| 2026-05-05 10:57 | 32.34266 | 34.55657 | 7535 ft | 334 kts | 115° |
| 2026-05-05 10:57 | 32.33358 | 34.58174 | 7160 ft | 331 kts | 115° |
| 2026-05-05 10:57 | 32.32747 | 34.59862 | 6911 ft | 328 kts | 115° |
| 2026-05-05 10:58 | 32.31867 | 34.62295 | 6630 ft | 323 kts | 115° |
| 2026-05-05 10:58 | 32.30989 | 34.64713 | 6379 ft | 316 kts | 116° |
| 2026-05-05 10:58 | 32.30131 | 34.67078 | 6117 ft | 310 kts | 115° |
| 2026-05-05 10:58 | 32.29017 | 34.70148 | 5783 ft | 303 kts | 115° |
| 2026-05-05 10:59 | 32.28459 | 34.71682 | 5641 ft | 298 kts | 116° |
| 2026-05-05 10:59 | 32.27654 | 34.73890 | 5438 ft | 292 kts | 116° |
| 2026-05-05 10:59 | 32.26854 | 34.76078 | 5233 ft | 286 kts | 116° |
| 2026-05-05 10:59 | 32.26065 | 34.78232 | 5063 ft | 281 kts | 116° |
| 2026-05-05 11:00 | 32.25342 | 34.80296 | 5063 ft | 268 kts | 110° |
| 2026-05-05 11:00 | 32.24806 | 34.82369 | 4929 ft | 260 kts | 109° |
| 2026-05-05 11:00 | 32.24281 | 34.84400 | 4776 ft | 254 kts | 109° |
| 2026-05-05 11:00 | 32.23767 | 34.86375 | 4629 ft | 249 kts | 109° |
| 2026-05-05 11:01 | 32.23265 | 34.88307 | 4469 ft | 243 kts | 109° |
| 2026-05-05 11:01 | 32.22773 | 34.90195 | 4311 ft | 237 kts | 109° |
| 2026-05-05 11:01 | 32.22302 | 34.92004 | 4161 ft | 232 kts | 109° |
| 2026-05-05 11:01 | 32.21829 | 34.93816 | 4012 ft | 226 kts | 110° |
| 2026-05-05 11:02 | 32.21375 | 34.95561 | 3880 ft | 216 kts | 110° |
| 2026-05-05 11:02 | 32.20925 | 34.97212 | 3711 ft | 205 kts | 117° |
| 2026-05-05 11:02 | 32.20125 | 34.98486 | 3552 ft | 188 kts | 147° |
| 2026-05-05 11:02 | 32.19010 | 34.99155 | 3406 ft | 175 kts | 174° |
| 2026-05-05 11:03 | 32.17831 | 34.99200 | 3262 ft | 168 kts | 192° |
| 2026-05-05 11:03 | 32.16673 | 34.99087 | 3114 ft | 169 kts | 192° |
| 2026-05-05 11:03 | 32.15560 | 34.98791 | 2963 ft | 159 kts | 212° |
| 2026-05-05 11:03 | 32.14571 | 34.98225 | 2898 ft | 156 kts | 213° |
| 2026-05-05 11:04 | 32.13597 | 34.97626 | 2754 ft | 157 kts | 214° |
| 2026-05-05 11:04 | 32.12632 | 34.97014 | 2565 ft | 157 kts | 214° |
| 2026-05-05 11:04 | 32.11663 | 34.96392 | 2369 ft | 159 kts | 215° |
| 2026-05-05 11:04 | 32.10706 | 34.95774 | 2155 ft | 157 kts | 216° |
| 2026-05-05 11:05 | 32.09782 | 34.95179 | 1950 ft | 146 kts | 216° |
| 2026-05-05 11:05 | 32.08917 | 34.94621 | 1781 ft | 137 kts | 215° |
| 2026-05-05 11:05 | 32.08096 | 34.94089 | 1587 ft | 133 kts | 215° |
| 2026-05-05 11:05 | 32.07284 | 34.93562 | 1407 ft | 132 kts | 216° |
| 2026-05-05 11:06 | 32.06479 | 34.93041 | 1232 ft | 132 kts | 216° |
| 2026-05-05 11:06 | 32.05674 | 34.92521 | 1044 ft | 131 kts | 216° |
| 2026-05-05 11:06 | 32.04874 | 34.92003 | 859 ft | 131 kts | 214° |
| 2026-05-05 11:06 | 32.04083 | 34.91491 | 691 ft | 131 kts | 214° |
| 2026-05-05 11:07 | 32.03281 | 34.90974 | 513 ft | 132 kts | 216° |
| 2026-05-05 11:07 | 32.02476 | 34.90456 | 308 ft | 131 kts | 215° |
| 2026-05-05 11:07 | 32.01681 | 34.89943 | 136 ft | 130 kts | 216° |
| 2026-05-05 11:07 | 32.00986 | 34.89488 | 121 ft | 92 kts | 208° |
| 2026-05-05 11:08 | 32.00574 | 34.89223 | 119 ft | 46 kts | 208° |
| 2026-05-05 11:08 | 32.00313 | 34.89052 | 117 ft | 38 kts | 212° |
| 2026-05-05 11:08 | 32.00170 | 34.88891 | 121 ft | 23 kts | 235° |
| 2026-05-05 11:08 | 32.00098 | 34.88753 | 117 ft | 16 kts | 239° |
| 2026-05-05 11:09 | 32.00090 | 34.88651 | 120 ft | 13 kts | 294° |
| 2026-05-05 11:09 | 32.00143 | 34.88550 | 116 ft | 16 kts | 302° |
| 2026-05-05 11:09 | 32.00204 | 34.88432 | 119 ft | 19 kts | 301° |
| 2026-05-05 11:09 | 32.00280 | 34.88288 | 117 ft | 23 kts | 301° |
| 2026-05-05 11:10 | 32.00371 | 34.88114 | 120 ft | 27 kts | 301° |
| 2026-05-05 11:10 | 32.00471 | 34.87921 | 119 ft | 28 kts | 301° |
| 2026-05-05 11:10 | 32.00572 | 34.87726 | 116 ft | 24 kts | 302° |
| 2026-05-05 11:10 | 32.00653 | 34.87570 | 120 ft | 20 kts | 302° |
| 2026-05-05 11:11 | 32.00661 | 34.87556 | 117 ft | 0 kts | 302° |
| 2026-05-05 11:11 | 32.00662 | 34.87553 | 117 ft | 1 kts | 302° |
| 2026-05-05 11:11 | 32.00673 | 34.87532 | 117 ft | 5 kts | 302° |
| 2026-05-05 11:11 | 32.00696 | 34.87489 | 119 ft | 8 kts | 301° |
| 2026-05-05 11:12 | 32.00729 | 34.87426 | 119 ft | 10 kts | 301° |
| 2026-05-05 11:12 | 32.00754 | 34.87341 | 120 ft | 12 kts | 261° |
| 2026-05-05 11:12 | 32.00680 | 34.87299 | 117 ft | 14 kts | 181° |
| 2026-05-05 11:12 | 32.00616 | 34.87351 | 118 ft | 8 kts | 145° |
| 2026-05-05 11:13 | 32.00593 | 34.87353 | 120 ft | 0 kts | 183° |